Time;durP1;ratioP1;P1;durP2;ratioP2;P2;SDS_P1;SDS_P2;PMS_P1;PMS_P2;Temp;Humidity;BMP_temperature;BMP_pressure;BME280_temperature;BME280_humidity;BME280_pressure;Samples;Min_cycle;Max_cycle;Signal;HPM_P1;HPM_P2
2023/08/13 00:01:32;;;;;;;2.60;1.40;;;;;;;;;;5110996;28;20043;-72
2023/08/13 00:03:59;;;;;;;1.95;1.10;;;;;;;;;;5113167;28;20118;-72
2023/08/13 00:06:25;;;;;;;3.42;1.30;;;;;;;;;;5113013;28;20404;-72
2023/08/13 00:08:52;;;;;;;2.00;1.10;;;;;;;;;;5113416;28;20071;-71
2023/08/13 00:11:19;;;;;;;2.28;1.20;;;;;;;;;;5112991;28;20059;-72
2023/08/13 00:13:45;;;;;;;3.22;1.27;;;;;;;;;;5112901;28;20048;-72
2023/08/13 00:16:15;;;;;;;3.20;1.42;;;;;;;;;;5112916;28;20050;-72
2023/08/13 00:18:44;;;;;;;2.20;1.10;;;;;;;;;;5112697;28;20186;-72
2023/08/13 00:21:14;;;;;;;1.95;1.10;;;;;;;;;;5113087;28;20129;-72
2023/08/13 00:23:41;;;;;;;1.85;1.05;;;;;;;;;;5113025;28;20040;-72
2023/08/13 00:26:10;;;;;;;1.75;1.05;;;;;;;;;;5112801;28;20074;-72
2023/08/13 00:28:37;;;;;;;2.25;1.20;;;;;;;;;;5112826;28;20525;-72
2023/08/13 00:31:03;;;;;;;2.15;1.10;;;;;;;;;;5094438;28;20113;-72
2023/08/13 00:33:30;;;;;;;1.77;1.17;;;;;;;;;;5112350;28;20518;-72
2023/08/13 00:35:57;;;;;;;3.53;1.20;;;;;;;;;;5112498;28;20348;-72
2023/08/13 00:38:23;;;;;;;1.63;1.00;;;;;;;;;;5112656;28;20071;-72
2023/08/13 00:40:50;;;;;;;1.75;1.13;;;;;;;;;;5112725;28;20078;-74
2023/08/13 00:43:17;;;;;;;2.58;1.17;;;;;;;;;;5112457;28;20050;-72
2023/08/13 00:45:46;;;;;;;1.70;1.10;;;;;;;;;;5112363;28;20057;-72
2023/08/13 00:48:13;;;;;;;2.70;1.30;;;;;;;;;;5112464;28;20089;-73
2023/08/13 00:50:40;;;;;;;1.98;1.20;;;;;;;;;;5112527;28;20396;-72
2023/08/13 00:53:08;;;;;;;2.40;1.00;;;;;;;;;;5111847;28;20503;-72
2023/08/13 00:55:35;;;;;;;2.10;1.13;;;;;;;;;;5112329;28;20047;-72
2023/08/13 00:58:02;;;;;;;2.40;1.20;;;;;;;;;;5111970;28;20050;-72
2023/08/13 01:00:30;;;;;;;1.38;1.00;;;;;;;;;;5112535;28;20051;-72
2023/08/13 01:02:57;;;;;;;2.22;1.30;;;;;;;;;;5112285;28;20044;-72
2023/08/13 01:05:36;;;;;;;2.20;1.20;;;;;;;;;;5112276;28;20074;-72
2023/08/13 01:08:16;;;;;;;2.25;1.10;;;;;;;;;;5111902;28;20043;-74
2023/08/13 01:10:50;;;;;;;1.48;1.05;;;;;;;;;;5111978;28;20580;-74
2023/08/13 01:13:37;;;;;;;2.20;1.23;;;;;;;;;;5110477;28;20518;-72
2023/08/13 01:16:04;;;;;;;2.10;1.13;;;;;;;;;;5111781;28;20404;-72
2023/08/13 01:18:33;;;;;;;1.65;1.20;;;;;;;;;;5111850;28;20039;-74
2023/08/13 01:20:59;;;;;;;2.00;1.20;;;;;;;;;;5112020;28;20044;-72
2023/08/13 01:23:26;;;;;;;2.67;1.10;;;;;;;;;;5111518;28;20047;-72
2023/08/13 01:26:14;;;;;;;3.95;1.40;;;;;;;;;;5111490;28;20044;-72
2023/08/13 01:28:55;;;;;;;2.47;1.40;;;;;;;;;;5093550;28;20070;-74
2023/08/13 01:31:30;;;;;;;2.25;1.15;;;;;;;;;;5111639;28;20072;-72
2023/08/13 01:33:58;;;;;;;1.65;1.10;;;;;;;;;;5110706;28;20768;-72
2023/08/13 01:36:26;;;;;;;2.47;1.20;;;;;;;;;;5111686;28;20043;-72
2023/08/13 01:38:55;;;;;;;1.98;1.20;;;;;;;;;;5111301;28;20499;-73
2023/08/13 01:41:21;;;;;;;2.20;1.10;;;;;;;;;;5111412;28;20048;-73
2023/08/13 01:43:48;;;;;;;1.92;1.20;;;;;;;;;;5111075;28;20058;-74
2023/08/13 01:46:15;;;;;;;1.60;1.00;;;;;;;;;;5110965;28;20058;-74
2023/08/13 01:48:41;;;;;;;2.47;1.13;;;;;;;;;;5111109;28;20047;-72
2023/08/13 01:51:08;;;;;;;1.63;1.00;;;;;;;;;;5111390;28;20067;-72
2023/08/13 01:53:35;;;;;;;3.08;1.23;;;;;;;;;;5111078;28;20127;-72
2023/08/13 01:56:01;;;;;;;3.00;1.27;;;;;;;;;;5111116;28;20043;-72
2023/08/13 01:58:28;;;;;;;2.00;1.15;;;;;;;;;;5111182;28;20047;-72
2023/08/13 02:00:55;;;;;;;2.65;1.08;;;;;;;;;;5110941;28;20506;-72
2023/08/13 02:03:22;;;;;;;1.42;1.05;;;;;;;;;;5110934;28;20039;-72
2023/08/13 02:05:49;;;;;;;1.58;1.10;;;;;;;;;;5110783;28;20047;-72
2023/08/13 02:08:15;;;;;;;1.40;1.08;;;;;;;;;;5110447;28;20051;-72
2023/08/13 02:10:42;;;;;;;2.20;1.23;;;;;;;;;;5111021;28;20052;-72
2023/08/13 02:13:09;;;;;;;2.22;1.10;;;;;;;;;;5110652;28;20130;-72
2023/08/13 02:15:35;;;;;;;1.90;1.20;;;;;;;;;;5110758;28;20047;-72
2023/08/13 02:18:02;;;;;;;1.75;1.10;;;;;;;;;;5110736;28;20036;-72
2023/08/13 02:20:29;;;;;;;1.48;1.00;;;;;;;;;;5110802;28;20135;-72
2023/08/13 02:22:55;;;;;;;1.73;1.17;;;;;;;;;;5110446;28;20050;-74
2023/08/13 02:25:22;;;;;;;1.73;0.90;;;;;;;;;;5110135;28;20043;-73
2023/08/13 02:27:49;;;;;;;2.38;1.10;;;;;;;;;;5110661;28;20126;-75
2023/08/13 02:30:19;;;;;;;1.75;0.85;;;;;;;;;;5109322;28;20058;-74
2023/08/13 02:32:46;;;;;;;1.75;1.00;;;;;;;;;;5110234;28;20574;-72
2023/08/13 02:35:12;;;;;;;2.35;1.15;;;;;;;;;;5110458;28;20044;-72
2023/08/13 02:37:39;;;;;;;1.75;1.00;;;;;;;;;;5110031;28;20055;-74
2023/08/13 02:40:06;;;;;;;1.83;0.90;;;;;;;;;;5110120;28;20048;-72
2023/08/13 02:42:33;;;;;;;1.30;1.00;;;;;;;;;;5110445;28;20051;-72
2023/08/13 02:45:00;;;;;;;2.53;1.00;;;;;;;;;;5110115;28;20392;-74
2023/08/13 02:47:26;;;;;;;1.73;1.00;;;;;;;;;;5110074;28;20108;-72
2023/08/13 02:49:53;;;;;;;1.52;0.93;;;;;;;;;;5110223;28;20044;-72
2023/08/13 02:52:20;;;;;;;1.08;0.85;;;;;;;;;;5109905;28;20126;-72
2023/08/13 02:54:54;;;;;;;1.38;1.10;;;;;;;;;;5109979;28;20118;-72
2023/08/13 02:57:21;;;;;;;1.00;0.90;;;;;;;;;;5110203;28;20044;-72
2023/08/13 02:59:47;;;;;;;1.85;0.95;;;;;;;;;;5109911;28;20051;-74
2023/08/13 03:02:16;;;;;;;1.65;1.00;;;;;;;;;;5109925;28;20070;-72
2023/08/13 03:04:43;;;;;;;2.50;1.10;;;;;;;;;;5109966;28;20206;-74
2023/08/13 03:07:09;;;;;;;2.47;0.90;;;;;;;;;;5110020;28;20039;-74
2023/08/13 03:09:36;;;;;;;1.40;0.90;;;;;;;;;;5109483;28;20519;-74
2023/08/13 03:12:03;;;;;;;1.85;0.93;;;;;;;;;;5110161;28;20075;-74
2023/08/13 03:14:30;;;;;;;1.17;0.80;;;;;;;;;;5109654;28;20509;-74
2023/08/13 03:16:57;;;;;;;1.23;0.90;;;;;;;;;;5109891;28;20126;-74
2023/08/13 03:19:24;;;;;;;1.20;0.90;;;;;;;;;;5109595;28;20051;-74
2023/08/13 03:21:50;;;;;;;1.48;1.00;;;;;;;;;;5110016;28;20047;-74
2023/08/13 03:24:17;;;;;;;2.38;0.90;;;;;;;;;;5109413;28;20043;-74
2023/08/13 03:26:44;;;;;;;3.40;0.90;;;;;;;;;;5109893;28;20044;-74
2023/08/13 03:29:10;;;;;;;1.98;1.00;;;;;;;;;;5109764;28;20051;-74
2023/08/13 03:31:38;;;;;;;1.23;0.98;;;;;;;;;;5109802;28;20047;-74
2023/08/13 03:34:05;;;;;;;1.08;0.90;;;;;;;;;;5109298;28;20395;-74
2023/08/13 03:36:31;;;;;;;2.30;1.10;;;;;;;;;;5111402;28;20130;-74
2023/08/13 03:38:58;;;;;;;1.20;0.90;;;;;;;;;;5113757;28;20050;-74
2023/08/13 03:41:25;;;;;;;1.17;0.90;;;;;;;;;;5114446;28;20120;-74
2023/08/13 03:43:51;;;;;;;1.73;1.08;;;;;;;;;;5113653;28;20051;-74
2023/08/13 03:46:18;;;;;;;1.30;0.88;;;;;;;;;;5113779;28;20046;-74
2023/08/13 03:48:45;;;;;;;1.10;0.80;;;;;;;;;;5113467;28;20044;-74
2023/08/13 03:51:11;;;;;;;1.27;0.90;;;;;;;;;;5113467;28;20507;-74
2023/08/13 03:53:38;;;;;;;1.27;0.82;;;;;;;;;;5113308;28;20048;-74
2023/08/13 03:56:06;;;;;;;1.38;0.90;;;;;;;;;;5113339;28;20143;-74
2023/08/13 03:58:34;;;;;;;1.42;0.90;;;;;;;;;;5113555;28;20044;-74
2023/08/13 04:01:06;;;;;;;3.28;1.00;;;;;;;;;;5113447;28;20087;-74
2023/08/13 04:03:33;;;;;;;1.55;0.80;;;;;;;;;;5113066;28;20055;-74
2023/08/13 04:06:00;;;;;;;2.00;1.00;;;;;;;;;;5113198;28;20147;-73
2023/08/13 04:08:26;;;;;;;1.45;0.88;;;;;;;;;;5113046;28;20043;-74
2023/08/13 04:10:53;;;;;;;1.20;0.93;;;;;;;;;;5113434;28;20052;-74
2023/08/13 04:13:20;;;;;;;1.35;0.73;;;;;;;;;;5113306;28;20051;-74
2023/08/13 04:15:46;;;;;;;1.13;0.80;;;;;;;;;;5113044;28;20415;-74
2023/08/13 04:18:13;;;;;;;1.92;1.00;;;;;;;;;;5113170;28;20047;-74
2023/08/13 04:20:40;;;;;;;2.33;0.95;;;;;;;;;;5112884;28;20514;-74
2023/08/13 04:23:07;;;;;;;1.30;0.82;;;;;;;;;;5111723;28;20478;-74
2023/08/13 04:25:34;;;;;;;3.13;0.80;;;;;;;;;;5112545;28;20047;-74
2023/08/13 04:28:01;;;;;;;0.88;0.70;;;;;;;;;;5113046;28;20200;-74
2023/08/13 04:30:28;;;;;;;1.15;0.90;;;;;;;;;;5112805;28;20047;-74
2023/08/13 04:32:56;;;;;;;2.67;0.80;;;;;;;;;;5112659;28;20051;-74
2023/08/13 04:35:25;;;;;;;0.95;0.80;;;;;;;;;;5112909;28;20050;-73
2023/08/13 04:37:52;;;;;;;1.17;0.80;;;;;;;;;;5112878;28;20048;-74
2023/08/13 04:40:19;;;;;;;3.38;0.90;;;;;;;;;;5112581;28;20052;-74
2023/08/13 04:42:45;;;;;;;1.88;0.90;;;;;;;;;;5112932;28;20070;-74
2023/08/13 04:45:12;;;;;;;1.83;0.70;;;;;;;;;;5112648;28;20047;-74
2023/08/13 04:47:39;;;;;;;1.63;0.95;;;;;;;;;;5112182;28;20054;-74
2023/08/13 04:50:08;;;;;;;1.13;0.63;;;;;;;;;;5112328;28;20537;-73
2023/08/13 04:52:34;;;;;;;1.08;0.70;;;;;;;;;;5112468;28;20126;-74
2023/08/13 04:55:01;;;;;;;1.50;0.85;;;;;;;;;;5112341;28;20558;-74
2023/08/13 04:57:31;;;;;;;1.10;0.70;;;;;;;;;;5112280;28;20044;-73
2023/08/13 04:59:59;;;;;;;2.00;0.80;;;;;;;;;;5112294;28;20057;-74
2023/08/13 05:02:26;;;;;;;0.60;0.60;;;;;;;;;;5112415;28;20043;-73
2023/08/13 05:04:54;;;;;;;0.85;0.70;;;;;;;;;;5112166;28;20043;-74
2023/08/13 05:07:21;;;;;;;4.47;0.80;;;;;;;;;;5111967;28;20511;-74
2023/08/13 05:09:51;;;;;;;2.10;0.65;;;;;;;;;;5112008;28;20057;-74
2023/08/13 05:12:17;;;;;;;1.03;0.80;;;;;;;;;;5112267;28;20043;-73
2023/08/13 05:14:44;;;;;;;1.05;0.73;;;;;;;;;;5111877;28;20343;-74
2023/08/13 05:17:20;;;;;;;1.35;0.55;;;;;;;;;;5112133;28;20088;-74
2023/08/13 05:19:48;;;;;;;0.80;0.60;;;;;;;;;;5111806;28;20050;-74
2023/08/13 05:22:14;;;;;;;1.60;0.70;;;;;;;;;;5111798;28;20044;-74
2023/08/13 05:24:42;;;;;;;2.30;0.80;;;;;;;;;;5111669;28;20043;-74
2023/08/13 05:27:09;;;;;;;0.65;0.60;;;;;;;;;;5111642;28;20554;-74
2023/08/13 05:29:35;;;;;;;1.10;0.73;;;;;;;;;;5111780;28;20051;-74
2023/08/13 05:32:02;;;;;;;1.65;0.68;;;;;;;;;;5111643;28;20047;-74
2023/08/13 05:34:29;;;;;;;0.63;0.60;;;;;;;;;;5111603;28;20050;-74
2023/08/13 05:36:57;;;;;;;2.00;0.50;;;;;;;;;;5111285;28;20407;-74
2023/08/13 05:39:24;;;;;;;1.38;0.60;;;;;;;;;;5110997;28;20051;-74
2023/08/13 05:41:51;;;;;;;1.73;0.70;;;;;;;;;;5111813;28;20043;-74
2023/08/13 05:44:17;;;;;;;0.70;0.70;;;;;;;;;;5111352;28;20048;-73
2023/08/13 05:46:44;;;;;;;1.75;0.65;;;;;;;;;;5111261;28;20419;-74
2023/08/13 05:49:11;;;;;;;3.05;0.60;;;;;;;;;;5111345;28;20088;-74
2023/08/13 05:51:37;;;;;;;1.30;0.63;;;;;;;;;;5111070;28;20048;-74
2023/08/13 05:54:04;;;;;;;0.63;0.60;;;;;;;;;;5110953;28;20519;-74
2023/08/13 05:56:31;;;;;;;0.82;0.45;;;;;;;;;;5111023;28;20074;-74
2023/08/13 05:58:57;;;;;;;0.63;0.60;;;;;;;;;;5110450;28;20035;-74
2023/08/13 06:01:25;;;;;;;0.75;0.50;;;;;;;;;;5110782;28;20051;-74
2023/08/13 06:03:52;;;;;;;1.13;0.65;;;;;;;;;;5111424;28;20053;-74
2023/08/13 06:06:20;;;;;;;1.02;0.63;;;;;;;;;;5110845;28;20052;-74
2023/08/13 06:08:48;;;;;;;0.88;0.60;;;;;;;;;;5110655;28;20559;-74
2023/08/13 06:11:15;;;;;;;1.10;0.60;;;;;;;;;;5111073;28;20108;-74
2023/08/13 06:13:41;;;;;;;1.08;0.70;;;;;;;;;;5110866;28;20073;-74
2023/08/13 06:16:08;;;;;;;0.95;0.60;;;;;;;;;;5110544;28;20602;-74
2023/08/13 06:18:35;;;;;;;0.40;0.40;;;;;;;;;;5110731;28;20048;-74
2023/08/13 06:21:03;;;;;;;1.27;0.63;;;;;;;;;;5110510;28;20054;-74
2023/08/13 06:23:30;;;;;;;1.77;0.70;;;;;;;;;;5110920;28;20067;-74
2023/08/13 06:25:57;;;;;;;1.55;0.50;;;;;;;;;;5110761;28;20059;-74
2023/08/13 06:28:24;;;;;;;1.83;0.80;;;;;;;;;;5110625;28;20048;-74
2023/08/13 06:30:51;;;;;;;0.68;0.60;;;;;;;;;;5110426;28;20127;-74
2023/08/13 06:33:18;;;;;;;1.40;0.77;;;;;;;;;;5110170;28;20058;-74
2023/08/13 06:35:46;;;;;;;0.85;0.60;;;;;;;;;;5110260;28;20055;-74
2023/08/13 06:38:14;;;;;;;0.88;0.60;;;;;;;;;;5092054;28;20494;-74
2023/08/13 06:40:41;;;;;;;2.00;0.70;;;;;;;;;;5110273;28;20048;-74
2023/08/13 06:43:08;;;;;;;0.80;0.52;;;;;;;;;;5110494;28;20043;-74
2023/08/13 06:45:38;;;;;;;1.23;0.60;;;;;;;;;;5110261;28;20043;-74
2023/08/13 06:48:08;;;;;;;2.55;0.60;;;;;;;;;;5110125;28;20048;-74
2023/08/13 06:50:38;;;;;;;1.17;0.70;;;;;;;;;;5109976;28;20039;-74
2023/08/13 06:53:08;;;;;;;1.13;0.73;;;;;;;;;;5109972;28;20333;-74
2023/08/13 06:55:34;;;;;;;1.50;0.68;;;;;;;;;;5109912;28;20415;-74
2023/08/13 06:58:01;;;;;;;3.15;0.60;;;;;;;;;;5110044;28;20044;-73
2023/08/13 07:00:27;;;;;;;1.40;0.73;;;;;;;;;;5109830;28;20059;-74
2023/08/13 07:03:05;;;;;;;1.05;0.60;;;;;;;;;;5109984;28;20439;-74
2023/08/13 07:05:31;;;;;;;1.05;0.68;;;;;;;;;;5109769;28;20044;-74
2023/08/13 07:07:58;;;;;;;1.00;0.70;;;;;;;;;;5109729;28;20044;-74
2023/08/13 07:10:25;;;;;;;1.95;0.63;;;;;;;;;;5109693;28;20096;-74
2023/08/13 07:12:51;;;;;;;1.35;0.68;;;;;;;;;;5110286;28;20048;-74
2023/08/13 07:15:18;;;;;;;0.82;0.60;;;;;;;;;;5109842;28;20530;-74
2023/08/13 07:17:45;;;;;;;1.02;0.50;;;;;;;;;;5110014;28;20048;-74
2023/08/13 07:20:14;;;;;;;0.98;0.65;;;;;;;;;;5110005;28;20035;-74
2023/08/13 07:22:45;;;;;;;1.48;0.70;;;;;;;;;;5109393;28;20044;-74
2023/08/13 07:25:12;;;;;;;1.50;0.73;;;;;;;;;;5109720;28;20492;-74
2023/08/13 07:27:40;;;;;;;1.83;0.70;;;;;;;;;;5109510;28;20058;-74
2023/08/13 07:30:11;;;;;;;1.17;0.82;;;;;;;;;;5109687;28;20047;-74
2023/08/13 07:32:42;;;;;;;1.75;0.80;;;;;;;;;;5109395;28;20419;-74
2023/08/13 07:35:12;;;;;;;1.42;0.60;;;;;;;;;;5092717;28;20074;-74
2023/08/13 07:37:39;;;;;;;1.60;0.60;;;;;;;;;;5090982;28;20675;-74
2023/08/13 07:40:07;;;;;;;1.40;0.65;;;;;;;;;;5109580;28;20366;-74
2023/08/13 07:42:37;;;;;;;1.75;0.90;;;;;;;;;;5091404;28;20044;-74
2023/08/13 07:45:11;;;;;;;1.35;0.73;;;;;;;;;;5092150;28;20097;-74
2023/08/13 07:47:41;;;;;;;1.10;0.80;;;;;;;;;;5109572;28;20044;-74
2023/08/13 07:50:08;;;;;;;1.85;0.75;;;;;;;;;;5109857;28;20048;-74
2023/08/13 07:52:35;;;;;;;2.05;0.90;;;;;;;;;;5109596;28;20044;-74
2023/08/13 07:55:03;;;;;;;0.73;0.60;;;;;;;;;;5109599;28;20047;-74
2023/08/13 07:57:30;;;;;;;1.65;0.75;;;;;;;;;;5109219;28;20047;-74
2023/08/13 07:59:58;;;;;;;1.58;0.80;;;;;;;;;;5109277;28;20050;-74
2023/08/13 08:02:24;;;;;;;1.00;0.63;;;;;;;;;;5109157;28;20047;-74
2023/08/13 08:04:51;;;;;;;0.75;0.70;;;;;;;;;;5109458;28;20491;-73
2023/08/13 08:07:21;;;;;;;0.63;0.57;;;;;;;;;;5109081;28;20526;-74
2023/08/13 08:09:47;;;;;;;2.67;0.80;;;;;;;;;;5109615;28;20101;-74
2023/08/13 08:12:14;;;;;;;1.25;0.73;;;;;;;;;;5109193;28;20418;-74
2023/08/13 08:14:41;;;;;;;3.72;0.80;;;;;;;;;;5109630;28;20101;-74
2023/08/13 08:17:08;;;;;;;1.40;0.75;;;;;;;;;;5109137;28;20044;-74
2023/08/13 08:19:37;;;;;;;2.80;0.90;;;;;;;;;;5109205;28;20039;-74
2023/08/13 08:22:04;;;;;;;2.13;0.90;;;;;;;;;;5109870;28;20503;-73
2023/08/13 08:24:31;;;;;;;1.35;0.80;;;;;;;;;;5113123;28;20047;-73
2023/08/13 08:26:57;;;;;;;1.85;0.80;;;;;;;;;;5112795;28;20396;-74
2023/08/13 08:29:24;;;;;;;1.10;0.80;;;;;;;;;;5112876;28;20055;-74
2023/08/13 08:31:51;;;;;;;3.08;0.77;;;;;;;;;;5112649;28;20054;-74
2023/08/13 08:34:18;;;;;;;2.30;0.82;;;;;;;;;;5112787;28;20402;-74
2023/08/13 08:36:45;;;;;;;0.98;0.60;;;;;;;;;;5112774;28;20130;-73
2023/08/13 08:39:14;;;;;;;1.15;0.70;;;;;;;;;;5112712;28;20039;-74
2023/08/13 08:41:47;;;;;;;1.47;0.90;;;;;;;;;;5112776;28;20047;-73
2023/08/13 08:44:20;;;;;;;2.05;0.88;;;;;;;;;;5094582;28;20039;-74
2023/08/13 08:46:49;;;;;;;2.05;0.82;;;;;;;;;;5113021;28;20075;-74
2023/08/13 08:49:23;;;;;;;4.30;1.00;;;;;;;;;;5112716;28;20044;-74
2023/08/13 08:51:51;;;;;;;1.63;0.80;;;;;;;;;;5112471;28;20105;-74
2023/08/13 08:54:18;;;;;;;1.50;0.90;;;;;;;;;;5112101;28;20048;-73
2023/08/13 08:56:45;;;;;;;1.25;0.80;;;;;;;;;;5112192;28;20047;-73
2023/08/13 08:59:14;;;;;;;1.58;0.90;;;;;;;;;;5112366;28;20067;-74
2023/08/13 09:01:41;;;;;;;2.50;0.90;;;;;;;;;;5112180;28;20055;-74
2023/08/13 09:04:08;;;;;;;2.15;0.90;;;;;;;;;;5112643;28;20050;-74
2023/08/13 09:07:01;;;;;;;2.85;1.00;;;;;;;;;;5112335;28;20048;-74
2023/08/13 09:09:30;;;;;;;1.83;1.00;;;;;;;;;;5111743;28;20051;-74
2023/08/13 09:11:57;;;;;;;4.57;0.88;;;;;;;;;;5111698;28;20048;-74
2023/08/13 09:14:24;;;;;;;1.95;0.90;;;;;;;;;;5094141;28;20040;-74
2023/08/13 09:16:54;;;;;;;2.92;1.33;;;;;;;;;;5111806;28;20083;-73
2023/08/13 09:19:26;;;;;;;2.78;0.85;;;;;;;;;;5111862;28;20074;-74
2023/08/13 09:21:54;;;;;;;2.78;0.80;;;;;;;;;;5111981;28;20044;-74
2023/08/13 09:24:32;;;;;;;1.73;0.77;;;;;;;;;;5112021;28;20105;-74
2023/08/13 09:26:59;;;;;;;4.28;0.93;;;;;;;;;;5111796;28;20046;-73
2023/08/13 09:29:28;;;;;;;2.45;1.02;;;;;;;;;;5111787;28;20076;-74
2023/08/13 09:31:55;;;;;;;2.85;0.90;;;;;;;;;;5111434;28;20040;-74
2023/08/13 09:34:22;;;;;;;3.30;1.10;;;;;;;;;;5110792;28;20043;-74
2023/08/13 09:36:51;;;;;;;3.92;1.02;;;;;;;;;;5111906;28;20047;-73
2023/08/13 09:39:18;;;;;;;1.98;0.90;;;;;;;;;;5111224;28;20451;-74
2023/08/13 09:41:47;;;;;;;1.30;0.90;;;;;;;;;;5111698;28;20055;-74
2023/08/13 09:44:19;;;;;;;1.98;1.05;;;;;;;;;;5110172;28;20054;-74
2023/08/13 09:46:51;;;;;;;2.25;0.80;;;;;;;;;;5111268;28;20044;-74
2023/08/13 09:49:18;;;;;;;1.85;0.70;;;;;;;;;;5110945;28;20127;-74
2023/08/13 09:51:48;;;;;;;2.53;1.00;;;;;;;;;;5111292;28;20549;-74
2023/08/13 09:54:34;;;;;;;;;;;;;;;;;;5111559;28;20058;-74
2023/08/13 09:57:07;;;;;;;1.48;0.80;;;;;;;;;;5111442;28;19927;-74
2023/08/13 09:59:36;;;;;;;1.33;0.88;;;;;;;;;;5110894;28;20047;-74
2023/08/13 10:02:07;;;;;;;1.63;0.85;;;;;;;;;;5110944;28;20098;-74
2023/08/13 10:04:38;;;;;;;1.50;0.90;;;;;;;;;;5111009;28;20062;-74
2023/08/13 10:07:06;;;;;;;1.92;0.98;;;;;;;;;;5110999;28;20044;-74
2023/08/13 10:09:34;;;;;;;1.50;0.93;;;;;;;;;;5110721;28;20085;-74
2023/08/13 10:12:02;;;;;;;1.60;1.05;;;;;;;;;;5092973;28;20043;-74
2023/08/13 10:14:30;;;;;;;1.70;1.00;;;;;;;;;;5110902;28;20127;-74
2023/08/13 10:17:05;;;;;;;1.45;0.90;;;;;;;;;;5110906;28;20540;-74
2023/08/13 10:19:37;;;;;;;2.42;1.00;;;;;;;;;;5110528;28;20043;-74
2023/08/13 10:22:04;;;;;;;3.67;1.05;;;;;;;;;;5110725;28;20047;-74
2023/08/13 10:24:31;;;;;;;1.75;0.90;;;;;;;;;;5110231;28;20040;-74
2023/08/13 10:26:58;;;;;;;3.67;1.10;;;;;;;;;;5110538;28;20613;-74
2023/08/13 10:29:35;;;;;;;1.58;0.88;;;;;;;;;;5110393;28;20487;-74
2023/08/13 10:32:12;;;;;;;1.17;0.80;;;;;;;;;;5110423;28;20491;-74
2023/08/13 10:34:40;;;;;;;2.72;0.77;;;;;;;;;;5110658;28;20062;-75
2023/08/13 10:37:16;;;;;;;1.73;0.80;;;;;;;;;;5110778;28;20127;-74
2023/08/13 10:39:44;;;;;;;2.55;1.02;;;;;;;;;;5110114;28;20051;-74
2023/08/13 10:42:26;;;;;;;1.08;0.80;;;;;;;;;;5110404;28;20052;-73
2023/08/13 10:45:00;;;;;;;3.35;0.90;;;;;;;;;;5109879;28;20096;-75
2023/08/13 10:47:37;;;;;;;2.90;1.08;;;;;;;;;;5110349;28;20411;-74
2023/08/13 10:50:19;;;;;;;1.35;0.80;;;;;;;;;;5110083;28;20490;-74
2023/08/13 10:52:52;;;;;;;1.65;0.80;;;;;;;;;;5110251;28;20098;-74
2023/08/13 10:55:23;;;;;;;2.03;1.00;;;;;;;;;;5110031;28;20487;-74
2023/08/13 10:57:51;;;;;;;2.50;1.05;;;;;;;;;;5110146;28;20131;-74
2023/08/13 11:00:21;;;;;;;1.65;1.08;;;;;;;;;;5091533;28;20495;-74
2023/08/13 11:03:32;;;;;;;1.50;1.10;;;;;;;;;;5110126;28;20052;-74
2023/08/13 11:06:03;;;;;;;3.05;1.00;;;;;;;;;;5110236;28;20043;-74
2023/08/13 11:08:29;;;;;;;;;;;;;;;;;;5110119;28;20047;-74
2023/08/13 11:11:16;;;;;;;0.93;0.80;;;;;;;;;;5110208;28;19920;-74
2023/08/13 11:13:44;;;;;;;1.65;1.00;;;;;;;;;;5109597;28;20537;-74
2023/08/13 11:16:12;;;;;;;1.50;1.00;;;;;;;;;;5110023;28;20043;-74
2023/08/13 11:18:39;;;;;;;1.30;0.95;;;;;;;;;;5109600;28;20054;-74
2023/08/13 11:21:06;;;;;;;3.33;0.80;;;;;;;;;;5109390;28;20411;-74
2023/08/13 11:23:33;;;;;;;1.95;0.95;;;;;;;;;;5109853;28;20275;-74
2023/08/13 11:25:59;;;;;;;2.08;1.00;;;;;;;;;;5110120;28;20051;-74
2023/08/13 11:28:27;;;;;;;1.50;0.90;;;;;;;;;;5109765;28;20047;-74
2023/08/13 11:30:56;;;;;;;2.72;1.10;;;;;;;;;;5109785;28;20047;-74
2023/08/13 11:33:23;;;;;;;2.58;1.10;;;;;;;;;;5109469;28;20218;-74
2023/08/13 11:35:52;;;;;;;3.15;1.27;;;;;;;;;;5109587;28;20147;-74
2023/08/13 11:38:19;;;;;;;3.50;1.00;;;;;;;;;;5109671;28;20054;-74
2023/08/13 11:40:46;;;;;;;3.35;1.20;;;;;;;;;;5109730;28;20048;-74
2023/08/13 11:43:13;;;;;;;2.65;1.10;;;;;;;;;;5109864;28;20079;-74
2023/08/13 11:45:40;;;;;;;3.40;1.20;;;;;;;;;;5109610;28;20070;-74
2023/08/13 11:48:10;;;;;;;2.17;1.05;;;;;;;;;;5109553;28;20499;-74
2023/08/13 11:50:38;;;;;;;2.47;1.17;;;;;;;;;;5109472;28;20077;-74
2023/08/13 11:53:12;;;;;;;1.80;1.00;;;;;;;;;;5109344;28;20052;-74
2023/08/13 11:55:44;;;;;;;2.50;1.10;;;;;;;;;;5109221;28;20078;-74
2023/08/13 11:58:14;;;;;;;1.40;1.08;;;;;;;;;;5112739;28;20044;-74
2023/08/13 12:00:41;;;;;;;;;;;;;;;;;;5113675;28;20050;-74
2023/08/13 12:03:07;;;;;;;2.10;1.08;;;;;;;;;;5113693;28;19920;-74
2023/08/13 12:05:35;;;;;;;1.60;1.10;;;;;;;;;;5113377;28;20047;-74
2023/08/13 12:08:04;;;;;;;1.98;1.05;;;;;;;;;;5113127;28;20039;-74
2023/08/13 12:10:33;;;;;;;3.87;1.10;;;;;;;;;;5112893;28;20093;-74
2023/08/13 12:13:00;;;;;;;1.75;1.27;;;;;;;;;;5113494;28;20047;-74
2023/08/13 12:15:26;;;;;;;1.50;1.00;;;;;;;;;;5112941;28;20048;-74
2023/08/13 12:17:55;;;;;;;1.92;1.10;;;;;;;;;;5113189;28;20442;-74
2023/08/13 12:20:22;;;;;;;2.28;1.15;;;;;;;;;;5113039;28;20501;-74
2023/08/13 12:22:50;;;;;;;6.13;1.33;;;;;;;;;;5113082;28;20055;-74
2023/08/13 12:25:19;;;;;;;2.85;1.13;;;;;;;;;;5112721;28;20438;-74
2023/08/13 12:27:47;;;;;;;2.55;1.15;;;;;;;;;;5113060;28;20043;-74
2023/08/13 12:30:14;;;;;;;3.35;1.20;;;;;;;;;;5112460;28;20040;-74
2023/08/13 12:32:40;;;;;;;1.95;1.27;;;;;;;;;;5112872;28;20051;-74
2023/08/13 12:35:10;;;;;;;1.73;1.17;;;;;;;;;;5112997;28;20047;-74
2023/08/13 12:37:37;;;;;;;2.28;1.27;;;;;;;;;;5112793;28;20522;-74
2023/08/13 12:40:04;;;;;;;1.60;1.08;;;;;;;;;;5112500;28;20059;-74
2023/08/13 12:42:31;;;;;;;1.90;1.05;;;;;;;;;;5112610;28;20055;-74
2023/08/13 12:44:59;;;;;;;1.67;1.10;;;;;;;;;;5112240;28;20392;-74
2023/08/13 12:47:26;;;;;;;2.00;1.20;;;;;;;;;;5112635;28;20043;-75
2023/08/13 12:49:54;;;;;;;3.03;1.30;;;;;;;;;;5112537;28;20056;-74
2023/08/13 12:52:21;;;;;;;3.17;1.30;;;;;;;;;;5112426;28;20079;-74
2023/08/13 12:54:50;;;;;;;2.30;1.35;;;;;;;;;;5112202;28;20135;-74
2023/08/13 12:57:16;;;;;;;3.28;1.40;;;;;;;;;;5112650;28;20044;-74
2023/08/13 12:59:43;;;;;;;2.15;1.20;;;;;;;;;;5112069;28;20435;-74
2023/08/13 13:02:09;;;;;;;2.50;1.20;;;;;;;;;;5112172;28;20050;-74
2023/08/13 13:04:36;;;;;;;2.17;1.33;;;;;;;;;;5112146;28;20043;-74
2023/08/13 13:07:03;;;;;;;1.67;1.13;;;;;;;;;;5112406;28;20044;-74
2023/08/13 13:09:30;;;;;;;2.20;1.10;;;;;;;;;;5111691;28;20046;-74
2023/08/13 13:11:56;;;;;;;2.45;1.30;;;;;;;;;;5112389;28;20118;-74
2023/08/13 13:14:23;;;;;;;2.40;1.23;;;;;;;;;;5112220;28;20130;-74
2023/08/13 13:16:55;;;;;;;2.45;1.30;;;;;;;;;;5112685;28;20048;-74
2023/08/13 13:19:21;;;;;;;3.75;1.48;;;;;;;;;;5111950;28;20051;-74
2023/08/13 13:21:48;;;;;;;1.88;1.33;;;;;;;;;;5093222;28;20411;-74
2023/08/13 13:24:15;;;;;;;2.97;1.17;;;;;;;;;;5111765;28;20075;-74
2023/08/13 13:26:42;;;;;;;2.65;1.35;;;;;;;;;;5111975;28;20043;-74
2023/08/13 13:29:09;;;;;;;2.90;1.40;;;;;;;;;;5112246;28;20043;-75
2023/08/13 13:31:35;;;;;;;3.17;1.40;;;;;;;;;;5111434;28;20048;-74
2023/08/13 13:34:02;;;;;;;1.58;1.08;;;;;;;;;;5111667;28;20055;-74
2023/08/13 13:36:29;;;;;;;1.85;1.25;;;;;;;;;;5111410;28;20047;-74
2023/08/13 13:38:58;;;;;;;1.88;1.13;;;;;;;;;;5111506;28;20044;-74
2023/08/13 13:41:25;;;;;;;2.85;1.27;;;;;;;;;;5111094;28;20051;-74
2023/08/13 13:43:52;;;;;;;2.53;1.30;;;;;;;;;;5093775;28;20057;-74
2023/08/13 13:46:19;;;;;;;2.60;1.25;;;;;;;;;;5111308;28;20534;-74
2023/08/13 13:48:45;;;;;;;2.75;1.48;;;;;;;;;;5111836;28;20051;-74
2023/08/13 13:51:12;;;;;;;2.88;1.20;;;;;;;;;;5111106;28;20044;-74
2023/08/13 13:53:38;;;;;;;3.45;1.38;;;;;;;;;;5111128;28;20047;-74
2023/08/13 13:56:06;;;;;;;2.58;1.40;;;;;;;;;;5111143;28;20054;-74
2023/08/13 13:58:33;;;;;;;2.00;1.40;;;;;;;;;;5111283;28;20056;-74
2023/08/13 14:01:01;;;;;;;3.40;1.42;;;;;;;;;;5110913;28;20172;-73
2023/08/13 14:03:27;;;;;;;2.15;1.15;;;;;;;;;;5111351;28;20055;-75
2023/08/13 14:05:54;;;;;;;4.10;1.48;;;;;;;;;;5111267;28;20044;-74
2023/08/13 14:08:21;;;;;;;3.20;1.50;;;;;;;;;;5110849;28;20102;-74
2023/08/13 14:10:48;;;;;;;5.00;1.50;;;;;;;;;;5110703;28;20056;-74
2023/08/13 14:13:15;;;;;;;4.13;1.42;;;;;;;;;;5111137;28;20044;-74
2023/08/13 14:15:42;;;;;;;2.53;1.42;;;;;;;;;;5110444;28;20411;-74
2023/08/13 14:18:09;;;;;;;2.88;1.40;;;;;;;;;;5110847;28;20503;-74
2023/08/13 14:20:36;;;;;;;2.92;1.35;;;;;;;;;;5110299;28;20039;-74
2023/08/13 14:23:03;;;;;;;2.47;1.30;;;;;;;;;;5110326;28;20521;-74
2023/08/13 14:25:30;;;;;;;2.13;1.25;;;;;;;;;;5110644;28;20048;-74
2023/08/13 14:27:57;;;;;;;2.03;1.33;;;;;;;;;;5110711;28;20385;-74
2023/08/13 14:30:25;;;;;;;2.40;1.30;;;;;;;;;;5110352;28;20443;-74
2023/08/13 14:32:51;;;;;;;3.97;1.60;;;;;;;;;;5110045;28;20051;-74
2023/08/13 14:35:18;;;;;;;2.85;1.80;;;;;;;;;;5110279;28;20075;-74
2023/08/13 14:37:44;;;;;;;2.10;1.40;;;;;;;;;;5110436;28;20044;-74
2023/08/13 14:40:11;;;;;;;4.07;1.70;;;;;;;;;;5110419;28;20039;-74
2023/08/13 14:42:41;;;;;;;1.80;1.30;;;;;;;;;;5110497;28;20047;-74
2023/08/13 14:45:08;;;;;;;1.98;1.23;;;;;;;;;;5110478;28;20043;-74
2023/08/13 14:47:34;;;;;;;1.73;1.25;;;;;;;;;;5110444;28;20049;-74
2023/08/13 14:50:01;;;;;;;2.70;1.30;;;;;;;;;;5110402;28;20499;-73